This is the latest recevied weather packets stored in our database for station/object VE6HFD-WX. If no packets are shown the sender has not sent any weather packets the latest 10 day(s).
| Time | Temp. | Humidity | Pressure | Rain* | Wind** | Luminosity | Snow |
|---|---|---|---|---|---|---|---|
| 1777681748 | 18.33° C | 37% | 1011.2 hPa | 0 mm | - | - | - |
| 1777681447 | 18.89° C | 36% | 1011.2 hPa | 0 mm | - | - | - |
| 1777681147 | 18.89° C | 36% | 1011.2 hPa | 0 mm | - | - | - |
| 1777680818 | 18.89° C | 36% | 1011.1 hPa | 0 mm | - | - | - |
| 1777680487 | 20° C | 33% | 1011.2 hPa | 0 mm | - | - | - |
| 1777680188 | 20° C | 31% | 1011.2 hPa | 0 mm | - | - | - |
| 1777679857 | 19.44° C | 31% | 1011.2 hPa | 0 mm | - | - | - |
| 1777679558 | 19.44° C | 31% | 1011.2 hPa | 0 mm | - | - | - |
| 1777679258 | 19.44° C | 32% | 1011.3 hPa | 0 mm | - | - | - |
| 1777678928 | 19.44° C | 31% | 1011.3 hPa | 0 mm | - | - | - |
| 1777678628 | 19.44° C | 32% | 1011.2 hPa | 0 mm | - | - | - |
| 1777678328 | 19.44° C | 32% | 1011.2 hPa | 0 mm | - | - | - |
| 1777678028 | 18.89° C | 34% | 1011.2 hPa | 0 mm | - | - | - |
| 1777677698 | 18.89° C | 32% | 1011.1 hPa | 0 mm | - | - | - |
| 1777677398 | 19.44° C | 33% | 1011 hPa | 0 mm | - | - | - |
| 1777677068 | 19.44° C | 31% | 1011.1 hPa | 0 mm | - | - | - |
| 1777676768 | 19.44° C | 32% | 1011.1 hPa | 0 mm | - | - | - |
| 1777676438 | 19.44° C | 32% | 1011.1 hPa | 0 mm | - | - | - |
| 1777676138 | 19.44° C | 32% | 1011.1 hPa | 0 mm | - | - | - |
| 1777675808 | 19.44° C | 32% | 1011 hPa | 0 mm | - | - | - |
| 1777675508 | 20° C | 29% | 1011.1 hPa | 0 mm | - | - | - |
| 1777675178 | 20° C | 29% | 1011 hPa | 0 mm | - | - | - |
| 1777674878 | 20° C | 30% | 1011 hPa | 0 mm | - | - | - |
| 1777674548 | 20° C | 29% | 1011.1 hPa | 0 mm | - | - | - |
| 1777674248 | 20° C | 28% | 1011 hPa | 0 mm | - | - | - |
* Rain latest hour (hover to see other rain measurements)
** Current wind speed in m/s (hover to see current wind gust speed)